Terminal Aerodrome Forecast
Issued by NWS

Home | Current Version | Previous Version | Text Only | Print | Product List | Glossary Off
Versions: 1 2 3 4 5 6 7 8 9 10 11 12 13 14 15 16 17 18 19

000
FTUS43 KICT 260522
TAFHUT
TAF
KHUT 260522Z 2606/2706 34006KT 6SM BR VCSH OVC040
      TEMPO 2606/2609 4SM SHRA OVC025
     FM260900 35008KT 5SM BR VCSH OVC020
     FM261200 36009KT 4SM BR VCSH OVC010
     FM261700 01010KT P6SM VCSH OVC020
     FM262300 02009KT P6SM OVC040=

USA.gov is the U.S. government's official web portal to all federal, state and local government web resources and services.